createdAt,value
2022-12-18T00:00:48.346Z,28.50
2022-12-18T00:04:27.400Z,38.75
2022-12-18T00:07:30.879Z,42.75
2022-12-18T00:10:33.395Z,36.25
2022-12-18T00:13:37.158Z,39.50
2022-12-18T00:16:40.798Z,46.25
2022-12-18T00:19:43.921Z,42.00
2022-12-18T00:22:47.073Z,37.25
2022-12-18T00:25:50.104Z,40.00
2022-12-18T00:28:53.922Z,44.25
2022-12-18T00:31:57.021Z,40.00
2022-12-18T00:34:59.712Z,40.00
2022-12-18T00:38:03.184Z,40.50
2022-12-18T00:41:06.300Z,47.25
2022-12-18T00:44:14.422Z,38.00
2022-12-18T00:47:17.021Z,32.25
2022-12-18T00:50:20.602Z,38.50
2022-12-18T00:53:23.276Z,28.75
2022-12-18T00:56:26.417Z,38.50
2022-12-18T00:59:29.224Z,31.00
2022-12-18T01:02:32.681Z,41.50
2022-12-18T01:05:41.318Z,40.25
2022-12-18T01:08:45.158Z,32.00
2022-12-18T01:11:48.922Z,32.00
2022-12-18T01:14:51.869Z,30.00
2022-12-18T01:17:54.901Z,38.50
2022-12-18T01:20:58.444Z,36.50
2022-12-18T01:24:01.068Z,27.75
2022-12-18T01:27:04.423Z,34.50
2022-12-18T01:30:07.422Z,31.25
2022-12-18T01:33:10.542Z,42.50
2022-12-18T01:36:22.192Z,32.00
2022-12-18T01:39:25.220Z,35.00
2022-12-18T01:42:27.909Z,25.25
2022-12-18T01:45:32.413Z,30.75
2022-12-18T01:48:35.091Z,33.50
2022-12-18T01:51:37.972Z,38.00
2022-12-18T01:54:40.883Z,36.75
2022-12-18T01:57:44.315Z,38.00
2022-12-18T02:00:47.063Z,17.50
2022-12-18T02:03:50.131Z,40.75
2022-12-18T02:07:10.630Z,35.50
2022-12-18T02:10:26.014Z,29.50
2022-12-18T02:13:34.645Z,29.75
2022-12-18T02:16:40.991Z,30.50
2022-12-18T02:20:07.149Z,35.50
2022-12-18T02:23:46.121Z,31.00
2022-12-18T02:26:51.648Z,35.75
2022-12-18T02:29:59.659Z,25.25
2022-12-18T02:33:06.778Z,32.75
2022-12-18T02:36:11.260Z,28.75
2022-12-18T02:39:16.200Z,24.00
2022-12-18T02:42:31.215Z,37.00
2022-12-18T02:45:35.093Z,33.00
2022-12-18T02:48:39.128Z,24.50
2022-12-18T02:51:55.321Z,26.25
2022-12-18T02:55:06.196Z,24.50
2022-12-18T02:58:22.822Z,28.25
2022-12-18T03:01:35.217Z,30.25
2022-12-18T03:05:03.047Z,34.00
2022-12-18T03:08:16.954Z,31.50
2022-12-18T03:11:41.502Z,26.25
2022-12-18T03:14:46.697Z,33.50
2022-12-18T03:17:56.879Z,30.50
2022-12-18T03:21:08.007Z,27.00
2022-12-18T03:24:16.153Z,29.25
2022-12-18T03:27:22.320Z,23.25
2022-12-18T03:30:28.513Z,36.00
2022-12-18T03:33:38.247Z,23.50
2022-12-18T03:36:41.148Z,23.00
2022-12-18T03:39:44.590Z,24.25
2022-12-18T03:42:51.565Z,30.25
2022-12-18T03:46:04.459Z,21.75
2022-12-18T03:49:13.322Z,28.75
2022-12-18T03:52:24.314Z,24.50
2022-12-18T03:55:29.773Z,24.25
2022-12-18T03:58:39.083Z,26.50
2022-12-18T04:02:08.991Z,26.25
2022-12-18T04:05:15.270Z,23.75
2022-12-18T04:08:20.219Z,28.00
2022-12-18T04:11:31.348Z,15.75
2022-12-18T04:14:36.817Z,26.50
2022-12-18T04:17:52.819Z,18.25
2022-12-18T04:20:59.385Z,20.25
2022-12-18T04:24:03.275Z,23.25
2022-12-18T04:27:06.544Z,24.00
2022-12-18T04:30:16.266Z,27.75
2022-12-18T04:33:19.009Z,27.25
2022-12-18T04:36:22.735Z,35.75
2022-12-18T04:39:25.715Z,25.50
2022-12-18T04:42:32.536Z,25.25
2022-12-18T04:45:35.144Z,29.25
2022-12-18T04:48:38.389Z,24.25
2022-12-18T04:51:41.011Z,21.00
2022-12-18T04:54:43.977Z,29.25
2022-12-18T04:57:46.534Z,27.00
2022-12-18T05:00:49.770Z,22.00
2022-12-18T05:03:53.141Z,25.75
2022-12-18T05:06:56.050Z,30.25
2022-12-18T05:09:58.623Z,23.00
2022-12-18T05:13:01.657Z,24.25
2022-12-18T05:16:04.474Z,30.50
2022-12-18T05:19:07.490Z,30.75
2022-12-18T05:22:10.488Z,36.75
2022-12-18T05:25:13.414Z,30.75
2022-12-18T05:28:16.036Z,45.50
2022-12-18T05:31:19.080Z,38.75
2022-12-18T05:34:21.537Z,27.25
2022-12-18T05:37:24.489Z,35.00
2022-12-18T05:40:27.033Z,35.50
2022-12-18T05:43:31.239Z,44.50
2022-12-18T05:46:33.875Z,42.50
2022-12-18T05:49:37.133Z,43.50
2022-12-18T05:52:39.698Z,38.75
2022-12-18T05:55:44.093Z,45.00
2022-12-18T05:58:46.871Z,45.00
2022-12-18T06:01:50.282Z,28.25
2022-12-18T06:04:53.011Z,32.00
2022-12-18T06:07:56.417Z,48.50
2022-12-18T06:10:59.133Z,44.00
2022-12-18T06:14:02.780Z,50.75
2022-12-18T06:17:05.495Z,46.75
2022-12-18T06:20:08.706Z,47.75
2022-12-18T06:23:11.261Z,56.00
2022-12-18T06:26:15.102Z,43.25
2022-12-18T06:29:17.801Z,53.50
2022-12-18T06:32:20.847Z,50.25
2022-12-18T06:35:23.550Z,57.00
2022-12-18T06:38:26.535Z,45.00
2022-12-18T06:41:29.280Z,56.00
2022-12-18T06:44:32.215Z,53.00
2022-12-18T06:47:34.966Z,46.25
2022-12-18T06:50:38.030Z,62.00
2022-12-18T06:53:42.771Z,52.50
2022-12-18T06:56:49.077Z,39.75
2022-12-18T06:59:51.901Z,43.75
2022-12-18T07:02:54.925Z,50.25
2022-12-18T07:05:57.670Z,55.50
2022-12-18T07:09:00.880Z,62.50
2022-12-18T07:12:03.503Z,45.50
2022-12-18T07:15:09.531Z,62.75
2022-12-18T07:18:12.115Z,51.75
2022-12-18T07:21:17.901Z,47.00
2022-12-18T07:24:20.520Z,57.25
2022-12-18T07:27:24.279Z,43.75
2022-12-18T07:30:27.119Z,51.75
2022-12-18T07:33:30.240Z,65.00
2022-12-18T07:36:33.269Z,54.00
2022-12-18T07:39:36.289Z,56.00
2022-12-18T07:42:38.895Z,54.50
2022-12-18T07:45:42.035Z,47.00
2022-12-18T07:48:49.364Z,49.50
2022-12-18T07:51:56.092Z,40.50
2022-12-18T07:54:58.761Z,47.25
2022-12-18T07:58:03.698Z,53.75
2022-12-18T08:01:15.594Z,56.00
2022-12-18T08:04:18.733Z,57.75
2022-12-18T08:07:21.280Z,65.25
2022-12-18T08:10:24.529Z,59.50
2022-12-18T08:13:27.844Z,53.50
2022-12-18T08:16:31.807Z,58.25
2022-12-18T08:19:34.689Z,63.50
2022-12-18T08:22:40.730Z,58.25
2022-12-18T08:25:43.544Z,67.75
2022-12-18T08:28:47.165Z,55.75
2022-12-18T08:31:51.376Z,57.75
2022-12-18T08:34:54.469Z,59.00
2022-12-18T08:37:57.257Z,54.25
2022-12-18T08:41:01.533Z,57.00
2022-12-18T08:44:27.067Z,62.00
2022-12-18T08:47:33.633Z,63.75
2022-12-18T08:50:36.300Z,70.75
2022-12-18T08:53:40.907Z,62.75
2022-12-18T08:56:43.912Z,69.00
2022-12-18T08:59:47.316Z,66.50
2022-12-18T09:02:50.122Z,48.00
2022-12-18T09:05:53.623Z,74.00
2022-12-18T09:08:56.306Z,60.00
2022-12-18T09:11:59.380Z,63.50
2022-12-18T09:15:02.189Z,56.25
2022-12-18T09:18:05.184Z,54.75
2022-12-18T09:21:12.680Z,62.50
2022-12-18T09:24:16.199Z,68.50
2022-12-18T09:27:18.686Z,54.00
2022-12-18T09:30:21.726Z,63.75
2022-12-18T09:33:24.365Z,62.00
2022-12-18T09:36:28.384Z,67.00
2022-12-18T09:39:31.754Z,54.00
2022-12-18T09:42:34.883Z,59.00
2022-12-18T09:45:45.584Z,69.00
2022-12-18T09:48:51.990Z,58.50
2022-12-18T09:51:59.491Z,58.75
2022-12-18T09:55:12.143Z,62.75
2022-12-18T09:58:33.509Z,58.75
2022-12-18T10:01:43.945Z,62.00
2022-12-18T10:04:54.933Z,70.25
2022-12-18T10:08:08.883Z,61.50
2022-12-18T10:11:42.436Z,63.25
2022-12-18T10:14:47.977Z,54.00
2022-12-18T10:17:53.540Z,60.00
2022-12-18T10:21:03.759Z,62.50
2022-12-18T10:24:20.369Z,61.50
2022-12-18T10:27:27.031Z,57.25
2022-12-18T10:30:29.798Z,54.25
2022-12-18T10:33:35.826Z,70.00
2022-12-18T10:36:39.023Z,56.00
2022-12-18T10:39:42.390Z,62.00
2022-12-18T10:42:45.403Z,66.25
2022-12-18T10:46:07.399Z,68.00
2022-12-18T10:49:25.670Z,57.75
2022-12-18T10:52:31.671Z,73.75
2022-12-18T10:55:38.678Z,66.25
2022-12-18T10:58:43.379Z,67.00
2022-12-18T11:01:59.724Z,67.75
2022-12-18T11:05:03.366Z,66.25
2022-12-18T11:08:05.963Z,73.25
2022-12-18T11:11:26.400Z,59.25
2022-12-18T11:14:31.311Z,58.00
2022-12-18T11:17:36.990Z,61.25
2022-12-18T11:20:40.646Z,62.75
2022-12-18T11:23:54.378Z,58.50
2022-12-18T11:26:59.955Z,61.50
2022-12-18T11:30:36.890Z,62.50
2022-12-18T11:33:58.432Z,62.00
2022-12-18T11:37:05.806Z,66.50
2022-12-18T11:40:15.115Z,55.25
2022-12-18T11:43:50.542Z,58.50
2022-12-18T11:47:05.439Z,63.50
2022-12-18T11:50:17.629Z,52.00
2022-12-18T11:53:21.249Z,69.00
2022-12-18T11:56:34.025Z,66.25
2022-12-18T11:59:46.803Z,73.25
2022-12-18T12:03:17.740Z,48.25
2022-12-18T12:06:34.268Z,72.75
2022-12-18T12:10:08.757Z,61.25
2022-12-18T12:13:45.991Z,55.00
2022-12-18T12:16:58.129Z,66.00
2022-12-18T12:20:12.261Z,62.00
2022-12-18T12:23:28.174Z,57.00
2022-12-18T12:26:40.047Z,60.50
2022-12-18T12:29:45.893Z,68.75
2022-12-18T12:32:56.486Z,66.00
2022-12-18T12:36:19.781Z,62.75
2022-12-18T12:39:26.027Z,51.00
2022-12-18T12:43:08.020Z,50.25
2022-12-18T12:46:12.876Z,53.25
2022-12-18T12:49:20.090Z,52.50
2022-12-18T12:52:45.639Z,44.50
2022-12-18T12:55:49.471Z,52.50
2022-12-18T12:59:14.538Z,57.00
2022-12-18T13:02:30.901Z,41.00
2022-12-18T13:05:47.712Z,54.50
2022-12-18T13:09:01.944Z,44.50
2022-12-18T13:12:25.302Z,55.50
2022-12-18T13:15:39.846Z,66.00
2022-12-18T13:18:50.733Z,64.00
2022-12-18T13:21:56.278Z,66.50
2022-12-18T13:24:59.308Z,65.50
2022-12-18T13:28:14.348Z,49.50
2022-12-18T13:31:42.428Z,60.25
2022-12-18T13:34:46.449Z,70.00
2022-12-18T13:37:56.518Z,66.75
2022-12-18T13:41:24.259Z,60.00
2022-12-18T13:44:40.012Z,60.50
2022-12-18T13:47:45.130Z,70.00
2022-12-18T13:51:14.905Z,64.00
2022-12-18T13:54:21.586Z,60.75
2022-12-18T13:57:35.919Z,65.75
2022-12-18T14:00:44.170Z,65.25
2022-12-18T14:03:48.703Z,68.50
2022-12-18T14:06:56.973Z,66.25
2022-12-18T14:10:18.667Z,60.50
2022-12-18T14:13:30.314Z,61.50
2022-12-18T14:16:33.438Z,63.75
2022-12-18T14:19:37.405Z,60.00
2022-12-18T14:22:45.302Z,68.50
2022-12-18T14:25:48.442Z,72.50
2022-12-18T14:28:51.782Z,62.50
2022-12-18T14:32:20.887Z,66.75
2022-12-18T14:35:23.593Z,73.25
2022-12-18T14:38:32.209Z,69.00
2022-12-18T14:41:37.468Z,66.50
2022-12-18T14:45:05.213Z,67.25
2022-12-18T14:48:09.640Z,59.75
2022-12-18T14:51:14.535Z,67.00
2022-12-18T14:54:19.584Z,77.25
2022-12-18T14:57:25.884Z,68.25
2022-12-18T15:00:29.118Z,66.75
2022-12-18T15:03:35.216Z,72.75
2022-12-18T15:06:41.957Z,71.00
2022-12-18T15:10:07.640Z,30.75
2022-12-18T15:13:22.900Z,61.50
2022-12-18T15:16:28.358Z,67.25
2022-12-18T15:19:39.998Z,70.50
2022-12-18T15:22:45.892Z,68.50
2022-12-18T15:25:53.485Z,67.75
2022-12-18T15:29:05.020Z,55.25
2022-12-18T15:32:21.841Z,61.75
2022-12-18T15:35:28.670Z,66.25
2022-12-18T15:38:33.890Z,47.00
2022-12-18T15:41:41.133Z,53.75
2022-12-18T15:44:45.711Z,53.25
2022-12-18T15:47:55.595Z,64.00
2022-12-18T15:51:01.249Z,62.00
2022-12-18T15:54:10.969Z,61.00
2022-12-18T15:57:29.510Z,54.50
2022-12-18T16:00:39.320Z,54.00
2022-12-18T16:03:45.087Z,60.75
2022-12-18T16:10:18.801Z,64.50
2022-12-18T16:13:26.145Z,50.25
2022-12-18T16:16:32.165Z,58.00
2022-12-18T16:19:37.197Z,56.75
2022-12-18T16:22:46.243Z,54.50
2022-12-18T16:25:50.854Z,57.75
2022-12-18T16:28:55.806Z,69.75
2022-12-18T16:32:03.768Z,51.50
2022-12-18T16:35:08.588Z,55.00
2022-12-18T16:38:14.472Z,63.25
2022-12-18T16:41:33.063Z,46.50
2022-12-18T16:44:37.578Z,59.00
2022-12-18T16:47:42.091Z,66.25
2022-12-18T16:50:46.498Z,69.75
2022-12-18T16:53:49.963Z,67.00
2022-12-18T16:56:54.997Z,55.25
2022-12-18T17:00:04.769Z,58.50
2022-12-18T17:03:12.534Z,51.75
2022-12-18T17:06:16.576Z,62.25
2022-12-18T17:09:26.091Z,60.00
2022-12-18T17:12:31.266Z,66.75
2022-12-18T17:15:45.536Z,55.75
2022-12-18T17:18:49.835Z,63.00
2022-12-18T17:21:57.334Z,62.75
2022-12-18T17:25:02.732Z,59.50
2022-12-18T17:28:08.528Z,67.75
2022-12-18T17:31:20.985Z,65.00
2022-12-18T17:34:26.033Z,62.75
2022-12-18T17:37:32.130Z,54.50
2022-12-18T17:40:36.708Z,63.75
2022-12-18T17:43:46.415Z,61.75
2022-12-18T17:46:54.355Z,68.00
2022-12-18T17:49:59.208Z,59.75
2022-12-18T17:53:04.688Z,71.25
2022-12-18T17:56:11.486Z,66.50
2022-12-18T17:59:16.946Z,74.00
2022-12-18T18:02:22.847Z,70.00
2022-12-18T18:05:31.588Z,63.75
2022-12-18T18:08:37.370Z,71.75
2022-12-18T18:12:00.227Z,64.00
2022-12-18T18:15:08.805Z,66.00
2022-12-18T18:18:13.496Z,59.75
2022-12-18T18:21:19.299Z,71.50
2022-12-18T18:24:25.831Z,75.00
2022-12-18T18:27:38.419Z,59.25
2022-12-18T18:30:44.558Z,65.50
2022-12-18T18:33:48.469Z,71.00
2022-12-18T18:36:53.581Z,51.50
2022-12-18T18:39:58.836Z,65.25
2022-12-18T18:43:03.547Z,73.50
2022-12-18T18:46:11.134Z,63.25
2022-12-18T18:49:16.644Z,66.50
2022-12-18T18:52:21.396Z,68.25
2022-12-18T18:55:27.151Z,56.25
2022-12-18T18:58:32.436Z,60.00
2022-12-18T19:01:36.683Z,44.75
2022-12-18T19:04:46.188Z,64.25
2022-12-18T19:07:52.039Z,66.50
2022-12-18T19:10:58.019Z,45.25
2022-12-18T19:14:03.961Z,57.75
2022-12-18T19:17:09.848Z,57.00
2022-12-18T19:20:15.824Z,58.25
2022-12-18T19:23:19.820Z,62.50
2022-12-18T19:26:28.087Z,62.75
2022-12-18T19:29:32.550Z,49.50
2022-12-18T19:32:39.748Z,45.25
2022-12-18T19:35:43.645Z,48.75
2022-12-18T19:38:49.323Z,58.75
2022-12-18T19:41:53.733Z,56.75
2022-12-18T19:44:59.262Z,65.00
2022-12-18T19:48:04.616Z,49.00
2022-12-18T19:51:17.121Z,67.75
2022-12-18T19:54:21.129Z,52.75
2022-12-18T19:57:26.315Z,46.75
2022-12-18T20:00:30.121Z,48.25
2022-12-18T20:03:36.426Z,49.50
2022-12-18T20:06:51.289Z,49.50
2022-12-18T20:10:01.352Z,59.50
2022-12-18T20:13:11.822Z,49.50
2022-12-18T20:16:19.349Z,36.75
2022-12-18T20:19:23.817Z,42.75
2022-12-18T20:22:28.971Z,50.25
2022-12-18T20:25:35.988Z,58.00
2022-12-18T20:28:44.740Z,64.25
2022-12-18T20:31:48.830Z,56.50
2022-12-18T20:34:54.247Z,58.25
2022-12-18T20:37:57.614Z,52.25
2022-12-18T20:41:05.989Z,51.00
2022-12-18T20:44:22.683Z,58.00
2022-12-18T20:47:30.767Z,55.50
2022-12-18T20:50:36.044Z,49.25
2022-12-18T20:53:40.980Z,52.00
2022-12-18T20:56:49.304Z,56.75
2022-12-18T20:59:54.606Z,42.00
2022-12-18T21:02:58.019Z,56.50
2022-12-18T21:06:02.211Z,56.75
2022-12-18T21:09:07.316Z,51.50
2022-12-18T21:12:40.359Z,55.00
2022-12-18T21:15:49.230Z,48.50
2022-12-18T21:18:54.538Z,54.00
2022-12-18T21:21:58.869Z,54.00
2022-12-18T21:25:02.261Z,48.50
2022-12-18T21:28:05.323Z,55.25
2022-12-18T21:31:08.943Z,54.50
2022-12-18T21:34:24.086Z,49.75
2022-12-18T21:37:27.747Z,54.25
2022-12-18T21:40:30.275Z,55.75
2022-12-18T21:43:59.464Z,45.50
2022-12-18T21:47:13.413Z,32.00
2022-12-18T21:50:26.040Z,38.75
2022-12-18T21:53:28.748Z,30.00
2022-12-18T21:56:52.450Z,44.75
2022-12-18T21:59:55.186Z,35.50
2022-12-18T22:03:17.867Z,47.25
2022-12-18T22:06:21.020Z,44.25
2022-12-18T22:09:25.340Z,51.25
2022-12-18T22:12:43.349Z,40.00
2022-12-18T22:15:48.229Z,26.50
2022-12-18T22:18:51.093Z,38.25
2022-12-18T22:21:54.810Z,40.50
2022-12-18T22:24:57.495Z,35.50
2022-12-18T22:28:19.039Z,39.50
2022-12-18T22:31:21.593Z,36.50
2022-12-18T22:34:24.766Z,45.50
2022-12-18T22:37:27.558Z,48.00
2022-12-18T22:40:30.756Z,39.50
2022-12-18T22:43:33.893Z,41.75
2022-12-18T22:46:43.490Z,43.00
2022-12-18T22:49:46.161Z,47.50
2022-12-18T22:52:49.489Z,34.50
2022-12-18T22:55:52.164Z,39.50
2022-12-18T22:58:55.795Z,34.25
2022-12-18T23:01:59.802Z,43.25
2022-12-18T23:05:02.867Z,43.25
2022-12-18T23:08:05.634Z,46.75
2022-12-18T23:11:08.946Z,46.00
2022-12-18T23:14:12.230Z,44.75
2022-12-18T23:17:15.021Z,39.75
2022-12-18T23:20:17.663Z,46.00
2022-12-18T23:23:20.669Z,33.00
2022-12-18T23:26:24.839Z,37.50
2022-12-18T23:29:28.195Z,45.50
2022-12-18T23:32:30.800Z,47.25
2022-12-18T23:35:35.899Z,45.50
2022-12-18T23:38:38.693Z,48.50
2022-12-18T23:41:41.615Z,36.00
2022-12-18T23:44:44.353Z,44.00
2022-12-18T23:47:51.102Z,45.75
2022-12-18T23:50:54.058Z,41.75
2022-12-18T23:53:59.943Z,51.50
2022-12-18T23:57:02.584Z,37.25
